Alpine, Arizona
Current Conditions -  °F | °C
As of 5:35 PM on Thursday 27 Nov 2014 (Local Time) from KJTC Reporting Station
Clear Clear  
Wind Chill:   Ceiling: Unl
Heat Index:   Visibility: 10mi
Dew Point: -10°   Wind: 7mph
Humidity: 29%   Direction: 200°SSW
Pressure: 30.42"   Gusts: NA
Location:  33.85°N, 109.14°W
Report Text: KJTC 280035Z AUTO 20006KT 10SM CLR 07/M10 A3042 RMK AO2
Loading
Personal Weather Stations






























Interactive Weather Map New forecast layout! Learn more

10-Day Weather Forecast

Advertisements
Track Severe Weather on mobile